sensor_id;sensor_type;location;lat;lon;timestamp;P1;durP1;ratioP1;P2;durP2;ratioP2
38653;SDS011;24413;52.450;20.706;2023-02-28T05:42:08;65.85;;;27.42;;
38653;SDS011;24413;52.450;20.706;2023-02-28T05:44:35;63.80;;;29.13;;
38653;SDS011;24413;52.450;20.706;2023-02-28T05:47:00;60.40;;;26.90;;
38653;SDS011;24413;52.450;20.706;2023-02-28T05:54:36;52.63;;;26.38;;
38653;SDS011;24413;52.450;20.706;2023-02-28T05:57:01;55.35;;;27.02;;
38653;SDS011;24413;52.450;20.706;2023-02-28T05:59:26;69.63;;;30.15;;
38653;SDS011;24413;52.450;20.706;2023-02-28T06:01:52;84.38;;;41.60;;
38653;SDS011;24413;52.450;20.706;2023-02-28T06:04:18;107.63;;;48.05;;
38653;SDS011;24413;52.450;20.706;2023-02-28T06:06:47;114.30;;;48.70;;
38653;SDS011;24413;52.450;20.706;2023-02-28T06:09:13;113.78;;;49.90;;
38653;SDS011;24413;52.450;20.706;2023-02-28T06:11:38;108.45;;;46.55;;
38653;SDS011;24413;52.450;20.706;2023-02-28T06:14:04;79.45;;;35.95;;
38653;SDS011;24413;52.450;20.706;2023-02-28T06:16:29;83.68;;;34.67;;
38653;SDS011;24413;52.450;20.706;2023-02-28T06:18:56;77.97;;;34.67;;
38653;SDS011;24413;52.450;20.706;2023-02-28T06:21:22;75.45;;;32.75;;
38653;SDS011;24413;52.450;20.706;2023-02-28T06:23:48;86.90;;;33.28;;
38653;SDS011;24413;52.450;20.706;2023-02-28T06:26:13;71.10;;;30.67;;
38653;SDS011;24413;52.450;20.706;2023-02-28T06:28:39;70.90;;;32.65;;
38653;SDS011;24413;52.450;20.706;2023-02-28T06:31:11;73.95;;;34.55;;
38653;SDS011;24413;52.450;20.706;2023-02-28T06:33:37;72.70;;;33.97;;
38653;SDS011;24413;52.450;20.706;2023-02-28T06:36:03;73.68;;;33.05;;
38653;SDS011;24413;52.450;20.706;2023-02-28T06:38:29;71.85;;;35.63;;
38653;SDS011;24413;52.450;20.706;2023-02-28T06:40:55;86.28;;;40.00;;
38653;SDS011;24413;52.450;20.706;2023-02-28T06:43:21;117.88;;;51.47;;
38653;SDS011;24413;52.450;20.706;2023-02-28T06:45:47;147.45;;;59.60;;
38653;SDS011;24413;52.450;20.706;2023-02-28T06:48:12;144.52;;;59.20;;
38653;SDS011;24413;52.450;20.706;2023-02-28T06:50:37;89.22;;;40.13;;
38653;SDS011;24413;52.450;20.706;2023-02-28T06:53:03;76.47;;;34.00;;
38653;SDS011;24413;52.450;20.706;2023-02-28T06:55:28;62.90;;;29.67;;
38653;SDS011;24413;52.450;20.706;2023-02-28T06:57:53;50.17;;;26.73;;
38653;SDS011;24413;52.450;20.706;2023-02-28T16:31:05;50.45;;;26.27;;
38653;SDS011;24413;52.450;20.706;2023-02-28T16:33:31;71.30;;;35.78;;
38653;SDS011;24413;52.450;20.706;2023-02-28T16:35:57;71.70;;;35.13;;
38653;SDS011;24413;52.450;20.706;2023-02-28T16:38:22;99.13;;;45.28;;
38653;SDS011;24413;52.450;20.706;2023-02-28T16:40:53;118.78;;;48.40;;
38653;SDS011;24413;52.450;20.706;2023-02-28T16:43:22;199.25;;;75.38;;
38653;SDS011;24413;52.450;20.706;2023-02-28T16:45:49;161.02;;;67.30;;
38653;SDS011;24413;52.450;20.706;2023-02-28T16:48:19;138.82;;;60.97;;
38653;SDS011;24413;52.450;20.706;2023-02-28T16:50:44;116.18;;;50.35;;
38653;SDS011;24413;52.450;20.706;2023-02-28T16:53:10;149.20;;;61.42;;
38653;SDS011;24413;52.450;20.706;2023-02-28T16:55:35;110.10;;;49.88;;
38653;SDS011;24413;52.450;20.706;2023-02-28T17:00:36;72.47;;;34.92;;
38653;SDS011;24413;52.450;20.706;2023-02-28T17:18:32;325.55;;;129.13;;
38653;SDS011;24413;52.450;20.706;2023-02-28T17:21:00;258.15;;;105.57;;
38653;SDS011;24413;52.450;20.706;2023-02-28T17:23:25;196.18;;;82.78;;
38653;SDS011;24413;52.450;20.706;2023-02-28T17:59:30;227.55;;;88.38;;
38653;SDS011;24413;52.450;20.706;2023-02-28T18:02:01;178.10;;;71.70;;
38653;SDS011;24413;52.450;20.706;2023-02-28T18:04:26;211.35;;;86.72;;
38653;SDS011;24413;52.450;20.706;2023-02-28T18:06:52;246.23;;;107.72;;
38653;SDS011;24413;52.450;20.706;2023-02-28T18:09:21;264.30;;;122.45;;
38653;SDS011;24413;52.450;20.706;2023-02-28T18:11:47;388.52;;;190.43;;
38653;SDS011;24413;52.450;20.706;2023-02-28T18:14:17;367.90;;;164.32;;
38653;SDS011;24413;52.450;20.706;2023-02-28T18:16:43;269.35;;;113.90;;
38653;SDS011;24413;52.450;20.706;2023-02-28T18:19:08;270.13;;;116.18;;
38653;SDS011;24413;52.450;20.706;2023-02-28T18:21:39;269.10;;;121.43;;
38653;SDS011;24413;52.450;20.706;2023-02-28T18:24:05;436.20;;;219.35;;
38653;SDS011;24413;52.450;20.706;2023-02-28T18:26:31;410.42;;;198.15;;
38653;SDS011;24413;52.450;20.706;2023-02-28T18:28:56;319.17;;;147.68;;
38653;SDS011;24413;52.450;20.706;2023-02-28T18:31:22;205.73;;;90.10;;
38653;SDS011;24413;52.450;20.706;2023-02-28T18:33:47;144.57;;;71.97;;
38653;SDS011;24413;52.450;20.706;2023-02-28T18:36:13;128.90;;;64.65;;
38653;SDS011;24413;52.450;20.706;2023-02-28T18:38:38;123.43;;;57.33;;
38653;SDS011;24413;52.450;20.706;2023-02-28T18:41:04;142.52;;;76.30;;
38653;SDS011;24413;52.450;20.706;2023-02-28T18:43:31;102.50;;;54.05;;
38653;SDS011;24413;52.450;20.706;2023-02-28T18:45:56;100.13;;;48.83;;
38653;SDS011;24413;52.450;20.706;2023-02-28T18:48:22;247.50;;;111.20;;
38653;SDS011;24413;52.450;20.706;2023-02-28T18:50:48;279.13;;;125.57;;
38653;SDS011;24413;52.450;20.706;2023-02-28T18:53:14;199.98;;;94.63;;
38653;SDS011;24413;52.450;20.706;2023-02-28T18:55:39;147.55;;;67.20;;
38653;SDS011;24413;52.450;20.706;2023-02-28T18:58:05;125.10;;;54.83;;
38653;SDS011;24413;52.450;20.706;2023-02-28T19:00:30;97.60;;;43.45;;
38653;SDS011;24413;52.450;20.706;2023-02-28T19:21:01;280.83;;;99.05;;
38653;SDS011;24413;52.450;20.706;2023-02-28T19:23:26;237.23;;;101.22;;
38653;SDS011;24413;52.450;20.706;2023-02-28T19:25:52;190.30;;;85.00;;
38653;SDS011;24413;52.450;20.706;2023-02-28T20:33:49;109.45;;;51.72;;
38653;SDS011;24413;52.450;20.706;2023-02-28T20:36:15;100.30;;;43.80;;
38653;SDS011;24413;52.450;20.706;2023-02-28T20:38:43;71.90;;;34.65;;
38653;SDS011;24413;52.450;20.706;2023-02-28T20:41:08;72.00;;;35.47;;
38653;SDS011;24413;52.450;20.706;2023-02-28T20:43:34;72.50;;;37.47;;
38653;SDS011;24413;52.450;20.706;2023-02-28T20:48:57;130.40;;;61.20;;
38653;SDS011;24413;52.450;20.706;2023-02-28T20:51:22;141.10;;;65.78;;
38653;SDS011;24413;52.450;20.706;2023-02-28T20:53:51;131.32;;;63.10;;
38653;SDS011;24413;52.450;20.706;2023-02-28T20:56:18;219.68;;;87.93;;
38653;SDS011;24413;52.450;20.706;2023-02-28T20:58:44;205.35;;;88.80;;
38653;SDS011;24413;52.450;20.706;2023-02-28T21:01:11;121.30;;;59.33;;
